Time;durP1;ratioP1;P1;durP2;ratioP2;P2;SDS_P1;SDS_P2;PMS_P1;PMS_P2;Temp;Humidity;BMP_temperature;BMP_pressure;BME280_temperature;BME280_humidity;BME280_pressure;Samples;Min_cycle;Max_cycle;Signal;HPM_P1;HPM_P2
2023/12/22 00:00:19;;;;;;;;;;;17.40;47.40;;;;;;1596091;73;729;-71
2023/12/22 00:02:23;;;;;;;;;;;17.30;47.40;;;;;;1608789;73;796;-72
2023/12/22 00:04:25;;;;;;;;;;;17.40;47.40;;;;;;1600402;73;1161;-71
2023/12/22 00:06:27;;;;;;;;;;;17.50;47.60;;;;;;1602434;73;765;-72
2023/12/22 00:08:29;;;;;;;;;;;17.30;47.50;;;;;;1605733;73;775;-72
2023/12/22 00:10:31;;;;;;;;;;;17.40;47.40;;;;;;1604569;73;1935;-70
2023/12/22 00:12:32;;;;;;;;;;;17.40;47.50;;;;;;1610382;73;769;-71
2023/12/22 00:14:34;;;;;;;;;;;17.40;47.50;;;;;;1604284;73;1170;-72
2023/12/22 00:16:37;;;;;;;;;;;17.30;47.50;;;;;;1613727;73;746;-69
2023/12/22 00:18:39;;;;;;;;;;;17.30;47.50;;;;;;1591701;73;1494;-68
2023/12/22 00:20:41;;;;;;;;;;;17.40;47.50;;;;;;1592052;73;780;-73
2023/12/22 00:22:43;;;;;;;;;;;17.40;47.50;;;;;;1589911;73;804;-70
2023/12/22 00:24:44;;;;;;;;;;;17.40;47.50;;;;;;1608597;73;1179;-72
2023/12/22 00:26:46;;;;;;;;;;;17.40;47.50;;;;;;1605017;73;800;-70
2023/12/22 00:28:48;;;;;;;;;;;17.40;47.50;;;;;;1593637;73;1931;-72
2023/12/22 00:30:50;;;;;;;;;;;17.30;47.40;;;;;;1598465;73;756;-72
2023/12/22 00:32:52;;;;;;;;;;;17.40;47.50;;;;;;1612053;73;763;-71
2023/12/22 00:34:54;;;;;;;;;;;17.40;47.50;;;;;;1595084;73;1139;-71
2023/12/22 00:36:56;;;;;;;;;;;17.40;47.50;;;;;;1611015;73;772;-69
2023/12/22 00:38:58;;;;;;;;;;;17.40;47.50;;;;;;1609195;73;760;-70
2023/12/22 00:40:59;;;;;;;;;;;17.40;47.50;;;;;;1608963;73;651;-70
2023/12/22 00:43:01;;;;;;;;;;;17.40;47.50;;;;;;1621643;73;750;-71
2023/12/22 00:45:03;;;;;;;;;;;17.30;47.50;;;;;;1603705;73;1223;-70
2023/12/22 00:47:05;;;;;;;;;;;17.30;47.50;;;;;;1609564;73;781;-71
2023/12/22 00:49:07;;;;;;;;;;;17.40;47.60;;;;;;1611788;73;1939;-71
2023/12/22 00:51:09;;;;;;;;;;;17.40;47.60;;;;;;1607648;73;780;-71
2023/12/22 00:53:11;;;;;;;;;;;17.40;47.50;;;;;;1616056;73;799;-68
2023/12/22 00:55:13;;;;;;;;;;;17.40;47.50;;;;;;1600069;73;1214;-72
2023/12/22 00:57:15;;;;;;;;;;;17.30;47.50;;;;;;1610414;73;768;-73
2023/12/22 00:59:17;;;;;;;;;;;17.30;47.50;;;;;;1605439;73;758;-72
2023/12/22 01:01:19;;;;;;;;;;;17.40;47.50;;;;;;1606475;73;753;-72
2023/12/22 01:03:21;;;;;;;;;;;17.30;47.50;;;;;;1611777;73;800;-72
2023/12/22 01:05:23;;;;;;;;;;;17.30;47.50;;;;;;1591252;73;1182;-72
2023/12/22 01:07:25;;;;;;;;;;;17.40;47.50;;;;;;1602400;73;845;-71
2023/12/22 01:09:27;;;;;;;;;;;17.30;47.50;;;;;;1596590;73;1923;-70
2023/12/22 01:11:29;;;;;;;;;;;17.30;47.50;;;;;;1594259;73;761;-71
2023/12/22 01:13:31;;;;;;;;;;;17.40;47.50;;;;;;1607089;73;1445;-72
2023/12/22 01:15:33;;;;;;;;;;;17.40;47.50;;;;;;1601749;73;769;-71
2023/12/22 01:17:35;;;;;;;;;;;17.40;47.50;;;;;;1601056;73;743;-72
2023/12/22 01:19:36;;;;;;;;;;;17.40;47.50;;;;;;1602454;73;758;-72
2023/12/22 01:21:38;;;;;;;;;;;17.40;47.50;;;;;;1602187;73;767;-70
2023/12/22 01:23:40;;;;;;;;;;;17.40;47.50;;;;;;1599361;73;1213;-71
2023/12/22 01:25:42;;;;;;;;;;;17.30;47.50;;;;;;1626578;73;810;-68
2023/12/22 01:27:44;;;;;;;;;;;17.30;47.50;;;;;;1607093;73;800;-70
2023/12/22 01:29:46;;;;;;;;;;;17.40;47.50;;;;;;1606726;73;1929;-69
2023/12/22 01:31:48;;;;;;;;;;;17.30;47.50;;;;;;1599583;73;788;-71
2023/12/22 01:33:49;;;;;;;;;;;17.40;47.50;;;;;;1610605;73;1124;-72
2023/12/22 01:35:51;;;;;;;;;;;17.40;47.50;;;;;;1596506;73;749;-71
2023/12/22 01:37:54;;;;;;;;;;;17.30;47.50;;;;;;1601021;73;780;-68
2023/12/22 01:39:56;;;;;;;;;;;17.40;47.50;;;;;;1602086;73;744;-69
2023/12/22 01:41:58;;;;;;;;;;;17.40;47.50;;;;;;1598762;73;748;-73
2023/12/22 01:43:59;;;;;;;;;;;17.30;47.50;;;;;;1599678;73;1148;-69
2023/12/22 01:46:01;;;;;;;;;;;17.40;47.50;;;;;;1602864;73;782;-72
2023/12/22 01:48:03;;;;;;;;;;;17.30;47.60;;;;;;1605702;73;761;-71
2023/12/22 01:50:05;;;;;;;;;;;17.40;47.50;;;;;;1609612;73;1951;-66
2023/12/22 01:52:07;;;;;;;;;;;17.40;47.50;;;;;;1600457;73;646;-71
2023/12/22 01:54:09;;;;;;;;;;;17.30;47.50;;;;;;1603045;73;1262;-72
2023/12/22 01:56:11;;;;;;;;;;;17.40;47.50;;;;;;1613891;73;767;-70
2023/12/22 01:58:13;;;;;;;;;;;17.40;47.50;;;;;;1600850;73;793;-72
2023/12/22 02:00:15;;;;;;;;;;;17.40;47.50;;;;;;1589300;73;791;-72
2023/12/22 02:02:17;;;;;;;;;;;17.40;47.50;;;;;;1601119;73;754;-72
2023/12/22 02:04:19;;;;;;;;;;;17.40;47.50;;;;;;1594011;73;1150;-72
2023/12/22 02:06:21;;;;;;;;;;;17.40;47.50;;;;;;1609168;73;786;-70
2023/12/22 02:08:22;;;;;;;;;;;17.40;47.50;;;;;;1615616;73;786;-72
2023/12/22 02:10:24;;;;;;;;;;;17.40;47.40;;;;;;1594224;73;1949;-71
2023/12/22 02:12:26;;;;;;;;;;;17.40;47.50;;;;;;1601645;73;735;-72
2023/12/22 02:14:28;;;;;;;;;;;17.30;47.60;;;;;;1601430;73;1179;-73
2023/12/22 02:16:35;;;;;;;;;;;17.30;47.50;;;;;;1604314;73;779;-71
2023/12/22 02:18:37;;;;;;;;;;;17.30;47.50;;;;;;1606668;73;723;-72
2023/12/22 02:20:39;;;;;;;;;;;17.30;47.50;;;;;;1587252;73;790;-73
2023/12/22 02:22:40;;;;;;;;;;;17.40;47.50;;;;;;1600696;73;793;-72
2023/12/22 02:24:42;;;;;;;;;;;17.40;47.50;;;;;;1622737;73;1161;-70
2023/12/22 02:26:44;;;;;;;;;;;17.40;47.50;;;;;;1600186;73;823;-73
2023/12/22 02:28:46;;;;;;;;;;;17.30;47.50;;;;;;1593748;73;796;-69
2023/12/22 02:31:04;;;;;;;;;;;17.30;47.50;;;;;;1608656;73;1939;-72
2023/12/22 02:33:07;;;;;;;;;;;17.40;47.60;;;;;;1600293;73;755;-70
2023/12/22 02:35:11;;;;;;;;;;;17.30;47.50;;;;;;1601456;73;1174;-72
2023/12/22 02:37:12;;;;;;;;;;;17.40;47.50;;;;;;1607863;73;1381;-72
2023/12/22 02:39:14;;;;;;;;;;;17.30;47.50;;;;;;1607219;73;788;-71
2023/12/22 02:41:16;;;;;;;;;;;17.40;47.50;;;;;;1602683;73;792;-71
2023/12/22 02:43:18;;;;;;;;;;;17.30;47.50;;;;;;1603650;73;706;-73
2023/12/22 02:45:20;;;;;;;;;;;17.30;47.60;;;;;;1596910;73;1167;-72
2023/12/22 02:47:22;;;;;;;;;;;17.40;47.50;;;;;;1595988;73;787;-72
2023/12/22 02:49:24;;;;;;;;;;;17.30;47.50;;;;;;1596263;73;804;-73
2023/12/22 02:51:26;;;;;;;;;;;17.40;47.50;;;;;;1599690;73;1974;-70
2023/12/22 02:53:27;;;;;;;;;;;17.30;47.50;;;;;;1597934;73;1250;-69
2023/12/22 02:55:29;;;;;;;;;;;17.40;47.50;;;;;;1600124;73;635;-72
2023/12/22 02:57:31;;;;;;;;;;;17.30;47.50;;;;;;1589035;73;785;-68
2023/12/22 02:59:33;;;;;;;;;;;17.40;47.50;;;;;;1596678;73;753;-71
2023/12/22 03:01:35;;;;;;;;;;;17.40;47.50;;;;;;1598412;73;762;-72
2023/12/22 03:03:37;;;;;;;;;;;17.30;47.50;;;;;;1608396;73;1163;-70
2023/12/22 03:05:39;;;;;;;;;;;17.40;47.50;;;;;;1598632;73;786;-72
2023/12/22 03:07:40;;;;;;;;;;;17.40;47.50;;;;;;1599832;73;1376;-72
2023/12/22 03:09:42;;;;;;;;;;;17.40;47.50;;;;;;1606090;73;809;-72
2023/12/22 03:11:44;;;;;;;;;;;17.40;47.50;;;;;;1600889;73;1949;-71
2023/12/22 03:13:46;;;;;;;;;;;17.40;47.50;;;;;;1591581;73;1160;-71
2023/12/22 03:15:48;;;;;;;;;;;17.40;47.50;;;;;;1605549;73;762;-72
2023/12/22 03:17:50;;;;;;;;;;;17.40;47.60;;;;;;1611670;73;741;-70
2023/12/22 03:19:52;;;;;;;;;;;17.40;47.50;;;;;;1601357;73;760;-70
2023/12/22 03:21:54;;;;;;;;;;;17.40;47.50;;;;;;1594382;73;743;-72
2023/12/22 03:23:55;;;;;;;;;;;17.40;47.50;;;;;;1613604;73;1158;-72
2023/12/22 03:25:57;;;;;;;;;;;17.30;47.50;;;;;;1604044;73;771;-71
2023/12/22 03:27:59;;;;;;;;;;;17.40;47.50;;;;;;1603646;73;753;-73
2023/12/22 03:30:01;;;;;;;;;;;17.40;47.60;;;;;;1612940;73;1913;-72
2023/12/22 03:32:03;;;;;;;;;;;17.40;47.60;;;;;;1604364;73;753;-70
2023/12/22 03:34:05;;;;;;;;;;;17.40;47.60;;;;;;1605241;73;1177;-70
2023/12/22 03:36:07;;;;;;;;;;;17.40;47.50;;;;;;1601886;73;781;-65
2023/12/22 03:38:09;;;;;;;;;;;17.30;47.40;;;;;;1564373;74;744;-71
2023/12/22 03:40:11;;;;;;;;;;;17.40;47.50;;;;;;1603488;73;778;-71
2023/12/22 03:42:13;;;;;;;;;;;17.30;47.50;;;;;;1609037;73;758;-71
2023/12/22 03:44:15;;;;;;;;;;;17.30;47.50;;;;;;1595089;73;1150;-71
2023/12/22 03:46:17;;;;;;;;;;;17.40;47.60;;;;;;1597770;73;766;-72
2023/12/22 03:48:18;;;;;;;;;;;17.30;47.50;;;;;;1602802;73;752;-73
2023/12/22 03:50:20;;;;;;;;;;;17.30;47.40;;;;;;1618172;73;1922;-72
2023/12/22 03:52:22;;;;;;;;;;;17.40;47.40;;;;;;1605436;73;816;-70
2023/12/22 03:54:24;;;;;;;;;;;17.30;47.50;;;;;;1597191;73;1236;-71
2023/12/22 03:56:26;;;;;;;;;;;17.30;47.50;;;;;;1602034;73;692;-71
2023/12/22 03:58:29;;;;;;;;;;;17.40;47.50;;;;;;1611509;73;631;-68
2023/12/22 04:00:31;;;;;;;;;;;17.30;47.50;;;;;;1597081;73;665;-70
2023/12/22 04:02:33;;;;;;;;;;;17.40;47.40;;;;;;1601389;73;1439;-72
2023/12/22 04:04:36;;;;;;;;;;;17.40;47.50;;;;;;1601257;73;1168;-71
2023/12/22 04:06:40;;;;;;;;;;;17.40;47.50;;;;;;1615085;72;1711;-70
2023/12/22 04:08:41;;;;;;;;;;;17.40;47.40;;;;;;1598601;73;752;-70
2023/12/22 04:10:44;;;;;;;;;;;17.30;47.40;;;;;;1594281;73;1920;-70
2023/12/22 04:12:46;;;;;;;;;;;17.40;47.40;;;;;;1589092;73;741;-69
2023/12/22 04:14:48;;;;;;;;;;;17.30;47.30;;;;;;1579706;73;1186;-72
2023/12/22 04:16:52;;;;;;;;;;;17.30;47.40;;;;;;1599092;73;781;-72
2023/12/22 04:18:53;;;;;;;;;;;17.40;47.30;;;;;;1598569;72;1646;-68
2023/12/22 04:20:55;;;;;;;;;;;17.40;47.40;;;;;;1610119;73;777;-71
2023/12/22 04:22:57;;;;;;;;;;;17.40;47.30;;;;;;1589417;73;749;-73
2023/12/22 04:24:59;;;;;;;;;;;17.40;47.30;;;;;;1597770;73;1154;-69
2023/12/22 04:27:01;;;;;;;;;;;17.40;47.30;;;;;;1591981;73;764;-72
2023/12/22 04:29:02;;;;;;;;;;;17.40;47.20;;;;;;1608321;73;774;-70
2023/12/22 04:31:06;;;;;;;;;;;17.40;47.20;;;;;;1602356;73;1917;-71
2023/12/22 04:33:08;;;;;;;;;;;17.40;47.20;;;;;;1601578;73;776;-69
2023/12/22 04:35:10;;;;;;;;;;;17.40;47.20;;;;;;1611703;73;1154;-69
2023/12/22 04:37:11;;;;;;;;;;;17.50;47.30;;;;;;1601615;73;733;-72
2023/12/22 04:39:13;;;;;;;;;;;17.50;47.30;;;;;;1610967;73;764;-72
2023/12/22 04:41:15;;;;;;;;;;;17.40;47.20;;;;;;1596643;73;799;-71
2023/12/22 04:43:17;;;;;;;;;;;17.40;47.10;;;;;;1594379;73;737;-72
2023/12/22 04:45:19;;;;;;;;;;;17.40;47.10;;;;;;1606016;73;1161;-72
2023/12/22 04:47:21;;;;;;;;;;;17.40;47.10;;;;;;1610634;73;730;-71
2023/12/22 04:49:23;;;;;;;;;;;17.50;47.30;;;;;;1599444;73;796;-73
2023/12/22 04:51:24;;;;;;;;;;;17.50;47.20;;;;;;1587882;73;1958;-71
2023/12/22 04:53:26;;;;;;;;;;;17.50;47.20;;;;;;1608821;73;1214;-70
2023/12/22 04:55:28;;;;;;;;;;;17.50;47.10;;;;;;1591732;73;750;-69
2023/12/22 04:57:30;;;;;;;;;;;17.50;47.20;;;;;;1603162;73;754;-72
2023/12/22 04:59:32;;;;;;;;;;;17.50;47.20;;;;;;1588123;73;1418;-72
2023/12/22 05:01:34;;;;;;;;;;;17.50;47.10;;;;;;1603326;73;770;-72
2023/12/22 05:03:36;;;;;;;;;;;17.50;47.10;;;;;;1604661;73;1171;-69
2023/12/22 05:05:38;;;;;;;;;;;17.50;47.10;;;;;;1597706;73;616;-73
2023/12/22 05:07:40;;;;;;;;;;;17.50;47.10;;;;;;1593050;73;801;-69
2023/12/22 05:09:42;;;;;;;;;;;17.50;47.10;;;;;;1604308;73;780;-70
2023/12/22 05:11:44;;;;;;;;;;;17.50;47.00;;;;;;1592438;73;1929;-73
2023/12/22 05:13:46;;;;;;;;;;;17.50;47.10;;;;;;1592633;73;1182;-69
2023/12/22 05:15:48;;;;;;;;;;;17.50;47.10;;;;;;1598844;73;699;-72
2023/12/22 05:17:50;;;;;;;;;;;17.50;47.10;;;;;;1595771;73;783;-72
2023/12/22 05:19:51;;;;;;;;;;;17.50;47.10;;;;;;1600989;73;770;-72
2023/12/22 05:21:55;;;;;;;;;;;17.60;47.00;;;;;;1597870;73;764;-72
2023/12/22 05:23:57;;;;;;;;;;;17.50;47.10;;;;;;1602367;73;1640;-73
2023/12/22 05:25:59;;;;;;;;;;;17.50;47.00;;;;;;1601802;73;722;-71
2023/12/22 05:28:01;;;;;;;;;;;17.60;47.00;;;;;;1603507;73;763;-72
2023/12/22 05:30:03;;;;;;;;;;;17.50;47.00;;;;;;1609269;73;745;-70
2023/12/22 05:32:05;;;;;;;;;;;17.50;47.00;;;;;;1596737;73;1928;-70
2023/12/22 05:34:10;;;;;;;;;;;17.50;47.00;;;;;;1597715;73;1167;-70
2023/12/22 05:36:11;;;;;;;;;;;17.50;46.90;;;;;;1604203;72;1615;-72
2023/12/22 05:38:13;;;;;;;;;;;17.50;47.00;;;;;;1595384;73;769;-72
2023/12/22 05:40:15;;;;;;;;;;;17.50;47.00;;;;;;1595350;73;748;-72
2023/12/22 05:42:16;;;;;;;;;;;17.50;47.00;;;;;;1605327;73;766;-72
2023/12/22 05:44:18;;;;;;;;;;;17.50;46.90;;;;;;1591756;73;1170;-73
2023/12/22 05:46:20;;;;;;;;;;;17.50;47.00;;;;;;1597935;73;706;-72
2023/12/22 05:48:22;;;;;;;;;;;17.50;46.90;;;;;;1603852;73;807;-72
2023/12/22 05:50:24;;;;;;;;;;;17.50;47.00;;;;;;1602372;73;760;-72
2023/12/22 05:52:26;;;;;;;;;;;17.50;47.00;;;;;;1592525;73;1939;-70
2023/12/22 05:54:28;;;;;;;;;;;17.50;46.90;;;;;;1605408;73;1350;-72
2023/12/22 05:56:30;;;;;;;;;;;17.50;47.00;;;;;;1601887;73;1446;-72
2023/12/22 05:58:32;;;;;;;;;;;17.50;47.00;;;;;;1594800;73;834;-72
2023/12/22 06:00:33;;;;;;;;;;;17.50;47.00;;;;;;1597319;73;799;-72
2023/12/22 06:02:35;;;;;;;;;;;17.50;46.90;;;;;;1617749;72;790;-72
2023/12/22 06:04:37;;;;;;;;;;;17.50;47.00;;;;;;1600065;73;1118;-72
2023/12/22 06:06:39;;;;;;;;;;;17.50;47.00;;;;;;1605238;73;778;-70
2023/12/22 06:08:41;;;;;;;;;;;17.60;46.90;;;;;;1601181;73;773;-71
2023/12/22 06:10:44;;;;;;;;;;;17.50;46.90;;;;;;1606886;73;788;-71
2023/12/22 06:12:46;;;;;;;;;;;17.50;46.90;;;;;;1600128;73;1960;-71
2023/12/22 06:14:48;;;;;;;;;;;17.50;46.90;;;;;;1600089;73;1186;-72
2023/12/22 06:16:50;;;;;;;;;;;17.50;47.00;;;;;;1612598;73;784;-69
2023/12/22 06:18:52;;;;;;;;;;;17.50;46.90;;;;;;1605689;73;769;-72
2023/12/22 06:20:54;;;;;;;;;;;17.50;46.90;;;;;;1605596;73;776;-72
2023/12/22 06:22:56;;;;;;;;;;;17.50;46.90;;;;;;1592931;73;771;-72
2023/12/22 06:24:58;;;;;;;;;;;17.60;46.90;;;;;;1594700;73;1151;-69
2023/12/22 06:27:00;;;;;;;;;;;17.50;46.90;;;;;;1597921;73;774;-72
2023/12/22 06:29:03;;;;;;;;;;;17.50;46.90;;;;;;1594684;73;793;-70
2023/12/22 06:31:05;;;;;;;;;;;17.50;46.90;;;;;;1603588;73;1929;-71
2023/12/22 06:33:07;;;;;;;;;;;17.50;46.90;;;;;;1605182;73;768;-71
2023/12/22 06:35:10;;;;;;;;;;;17.50;46.90;;;;;;1609660;73;1168;-68
2023/12/22 06:37:12;;;;;;;;;;;17.50;47.00;;;;;;1609171;73;768;-73
2023/12/22 06:39:14;;;;;;;;;;;17.50;46.90;;;;;;1602021;73;785;-71
2023/12/22 06:41:21;;;;;;;;;;;17.50;46.90;;;;;;1592548;73;795;-72
2023/12/22 06:43:24;;;;;;;;;;;17.60;46.90;;;;;;1612743;73;809;-71
2023/12/22 06:45:26;;;;;;;;;;;17.50;46.90;;;;;;1619447;73;749;-69
2023/12/22 06:47:28;;;;;;;;;;;17.40;46.80;;;;;;1595836;73;780;-71
2023/12/22 06:49:30;;;;;;;;;;;17.50;46.80;;;;;;1597605;73;768;-71
2023/12/22 06:51:33;;;;;;;;;;;17.50;46.80;;;;;;1613039;73;1941;-72
2023/12/22 06:53:35;;;;;;;;;;;17.50;46.80;;;;;;1604560;73;1222;-72
2023/12/22 06:55:36;;;;;;;;;;;17.50;46.80;;;;;;1607328;73;776;-72
2023/12/22 06:57:38;;;;;;;;;;;17.50;46.80;;;;;;1605907;73;781;-72
2023/12/22 06:59:40;;;;;;;;;;;17.50;46.90;;;;;;1600874;73;776;-69
2023/12/22 07:01:42;;;;;;;;;;;17.50;46.80;;;;;;1599524;73;809;-71
2023/12/22 07:03:44;;;;;;;;;;;17.40;46.70;;;;;;1612428;73;1127;-72
2023/12/22 07:05:46;;;;;;;;;;;17.50;46.90;;;;;;1595040;73;794;-73
2023/12/22 07:07:48;;;;;;;;;;;17.50;46.80;;;;;;1613097;73;768;-72
2023/12/22 07:09:49;;;;;;;;;;;17.50;46.90;;;;;;1611062;73;748;-70
2023/12/22 07:11:56;;;;;;;;;;;17.50;46.90;;;;;;1599620;73;1939;-71
2023/12/22 07:13:55;;;;;;;;;;;17.40;46.80;;;;;;1601482;72;1518;-71
2023/12/22 07:15:57;;;;;;;;;;;17.50;46.90;;;;;;1619742;73;770;-71
2023/12/22 07:17:59;;;;;;;;;;;17.50;46.90;;;;;;1589116;73;809;-70
2023/12/22 07:20:03;;;;;;;;;;;17.40;46.70;;;;;;1603082;73;776;-71
2023/12/22 07:22:04;;;;;;;;;;;17.50;46.80;;;;;;1598754;73;741;-71
2023/12/22 07:24:06;;;;;;;;;;;17.40;46.80;;;;;;1593726;73;1150;-71
2023/12/22 07:26:08;;;;;;;;;;;17.50;46.90;;;;;;1605859;72;784;-72
2023/12/22 07:28:10;;;;;;;;;;;17.50;46.80;;;;;;1608792;73;746;-72
2023/12/22 07:30:15;;;;;;;;;;;17.40;46.70;;;;;;1609346;73;764;-72
2023/12/22 07:32:16;;;;;;;;;;;17.50;46.90;;;;;;1592192;72;1923;-70
2023/12/22 07:34:18;;;;;;;;;;;17.40;46.70;;;;;;1611378;73;1174;-72
2023/12/22 07:36:21;;;;;;;;;;;17.40;46.80;;;;;;1602801;73;622;-72
2023/12/22 07:38:23;;;;;;;;;;;17.40;46.70;;;;;;1594751;73;782;-70
2023/12/22 07:40:24;;;;;;;;;;;17.50;46.90;;;;;;1602672;73;799;-71
2023/12/22 07:42:26;;;;;;;;;;;17.40;46.80;;;;;;1608289;73;757;-71
2023/12/22 07:44:28;;;;;;;;;;;17.50;46.90;;;;;;1597501;73;1151;-71
2023/12/22 07:46:30;;;;;;;;;;;17.40;46.80;;;;;;1593066;73;932;-70
2023/12/22 07:48:32;;;;;;;;;;;17.40;46.80;;;;;;1612429;73;1433;-69
2023/12/22 07:50:34;;;;;;;;;;;17.40;46.80;;;;;;1613336;73;773;-72
2023/12/22 07:52:39;;;;;;;;;;;17.50;46.90;;;;;;1606211;73;1935;-69
2023/12/22 07:54:41;;;;;;;;;;;17.40;46.80;;;;;;1598589;73;1226;-71
2023/12/22 07:56:43;;;;;;;;;;;17.50;46.90;;;;;;1607011;73;796;-70
2023/12/22 07:58:45;;;;;;;;;;;17.50;46.90;;;;;;1602834;73;794;-73
2023/12/22 08:00:47;;;;;;;;;;;17.40;46.80;;;;;;1595053;73;647;-72
2023/12/22 08:02:49;;;;;;;;;;;17.40;46.70;;;;;;1602599;73;759;-72
2023/12/22 08:04:50;;;;;;;;;;;17.40;46.80;;;;;;1589206;73;1148;-72
2023/12/22 08:06:52;;;;;;;;;;;17.40;46.80;;;;;;1599281;73;748;-71
2023/12/22 08:08:54;;;;;;;;;;;17.40;46.70;;;;;;1610183;73;751;-72
2023/12/22 08:10:56;;;;;;;;;;;17.40;46.80;;;;;;1605237;73;675;-69
2023/12/22 08:12:58;;;;;;;;;;;17.50;46.90;;;;;;1596053;73;1931;-72
2023/12/22 08:15:00;;;;;;;;;;;17.40;46.70;;;;;;1610044;73;1192;-71
2023/12/22 08:17:02;;;;;;;;;;;17.40;46.70;;;;;;1605334;73;741;-71
2023/12/22 08:19:04;;;;;;;;;;;17.50;47.00;;;;;;1610485;73;776;-70
2023/12/22 08:21:06;;;;;;;;;;;17.40;46.80;;;;;;1598521;73;766;-72
2023/12/22 08:23:08;;;;;;;;;;;17.40;46.80;;;;;;1602437;73;650;-72
2023/12/22 08:25:10;;;;;;;;;;;17.40;46.80;;;;;;1604242;73;1137;-73
2023/12/22 08:27:11;;;;;;;;;;;17.40;46.80;;;;;;1604331;73;675;-71
2023/12/22 08:29:13;;;;;;;;;;;17.40;46.80;;;;;;1600157;73;720;-69
2023/12/22 08:31:15;;;;;;;;;;;17.40;46.80;;;;;;1611465;73;778;-71
2023/12/22 08:33:17;;;;;;;;;;;17.40;46.80;;;;;;1609548;73;1940;-71
2023/12/22 08:35:19;;;;;;;;;;;17.40;46.80;;;;;;1598551;73;1171;-71
2023/12/22 08:37:21;;;;;;;;;;;17.40;46.80;;;;;;1605709;73;774;-70
2023/12/22 08:39:24;;;;;;;;;;;17.40;46.80;;;;;;1601045;73;811;-72
2023/12/22 08:41:26;;;;;;;;;;;17.50;46.90;;;;;;1596658;73;737;-69
2023/12/22 08:43:28;;;;;;;;;;;17.40;46.80;;;;;;1591647;73;1159;-70
2023/12/22 08:45:30;;;;;;;;;;;17.40;46.80;;;;;;1617977;73;749;-72
2023/12/22 08:47:32;;;;;;;;;;;17.40;46.80;;;;;;1608301;73;759;-72
2023/12/22 08:49:34;;;;;;;;;;;17.40;46.80;;;;;;1599073;73;602;-72
2023/12/22 08:51:36;;;;;;;;;;;17.40;46.90;;;;;;1610480;73;762;-73
2023/12/22 08:53:38;;;;;;;;;;;17.40;46.80;;;;;;1608501;73;1928;-72
2023/12/22 08:55:40;;;;;;;;;;;17.40;46.90;;;;;;1593723;72;824;-69
2023/12/22 08:57:41;;;;;;;;;;;17.40;46.80;;;;;;1611933;73;778;-69
2023/12/22 08:59:43;;;;;;;;;;;17.40;46.90;;;;;;1602368;73;797;-71
2023/12/22 09:01:45;;;;;;;;;;;17.40;46.80;;;;;;1606834;73;792;-72
2023/12/22 09:03:47;;;;;;;;;;;17.40;46.90;;;;;;1595944;73;1227;-71
2023/12/22 09:05:49;;;;;;;;;;;17.40;47.00;;;;;;1595236;73;758;-72
2023/12/22 09:07:51;;;;;;;;;;;17.40;46.90;;;;;;1594638;73;749;-72
2023/12/22 09:09:53;;;;;;;;;;;17.40;46.90;;;;;;1601692;73;760;-72
2023/12/22 09:11:54;;;;;;;;;;;17.40;46.90;;;;;;1588754;73;798;-70
2023/12/22 09:13:56;;;;;;;;;;;17.40;46.90;;;;;;1590204;73;1923;-72
2023/12/22 09:15:58;;;;;;;;;;;17.40;46.90;;;;;;1601400;73;749;-72
2023/12/22 09:18:00;;;;;;;;;;;17.40;46.90;;;;;;1598801;73;786;-71
2023/12/22 09:20:02;;;;;;;;;;;17.40;46.90;;;;;;1601383;73;769;-71
2023/12/22 09:22:04;;;;;;;;;;;17.40;46.90;;;;;;1611209;73;781;-71
2023/12/22 09:24:06;;;;;;;;;;;17.40;46.90;;;;;;1601502;73;1135;-69
2023/12/22 09:26:08;;;;;;;;;;;17.40;47.00;;;;;;1613591;73;786;-72
2023/12/22 09:28:10;;;;;;;;;;;17.40;47.00;;;;;;1610093;73;805;-73
2023/12/22 09:30:12;;;;;;;;;;;17.40;47.00;;;;;;1595287;73;800;-71
2023/12/22 09:32:14;;;;;;;;;;;17.40;47.00;;;;;;1596106;73;1931;-69
2023/12/22 09:34:15;;;;;;;;;;;17.40;47.00;;;;;;1601894;73;1175;-72
2023/12/22 09:36:17;;;;;;;;;;;17.40;47.00;;;;;;1614005;73;762;-72
2023/12/22 09:38:20;;;;;;;;;;;17.40;47.00;;;;;;1606090;73;779;-72
2023/12/22 09:40:22;;;;;;;;;;;17.40;47.00;;;;;;1593767;73;1449;-72
2023/12/22 09:42:24;;;;;;;;;;;17.40;47.00;;;;;;1603051;73;815;-69
2023/12/22 09:44:26;;;;;;;;;;;17.40;47.00;;;;;;1598149;73;1175;-72
2023/12/22 09:46:28;;;;;;;;;;;17.40;47.00;;;;;;1590986;73;734;-72
2023/12/22 09:48:30;;;;;;;;;;;17.40;47.00;;;;;;1600731;73;677;-71
2023/12/22 09:50:32;;;;;;;;;;;17.40;47.00;;;;;;1593818;73;649;-70
2023/12/22 09:52:34;;;;;;;;;;;17.40;47.00;;;;;;1599473;73;1927;-71
2023/12/22 09:54:35;;;;;;;;;;;17.40;47.00;;;;;;1596980;73;1174;-74
2023/12/22 09:56:41;;;;;;;;;;;17.30;47.00;;;;;;1597210;73;803;-72
2023/12/22 09:58:41;;;;;;;;;;;17.40;47.00;;;;;;1599918;73;1736;-72
2023/12/22 10:00:43;;;;;;;;;;;17.40;47.10;;;;;;1596539;73;744;-70
2023/12/22 10:02:45;;;;;;;;;;;17.30;47.10;;;;;;1590339;73;768;-71
2023/12/22 10:04:47;;;;;;;;;;;17.40;47.00;;;;;;1591198;73;1216;-71
2023/12/22 10:06:49;;;;;;;;;;;17.40;47.10;;;;;;1591842;73;763;-71
2023/12/22 10:08:51;;;;;;;;;;;17.40;47.10;;;;;;1603179;73;768;-72
2023/12/22 10:10:53;;;;;;;;;;;17.40;47.10;;;;;;1600498;73;742;-66
2023/12/22 10:12:55;;;;;;;;;;;17.50;47.20;;;;;;1602690;73;1925;-71
2023/12/22 10:14:57;;;;;;;;;;;17.40;47.10;;;;;;1585614;73;1166;-71
2023/12/22 10:16:59;;;;;;;;;;;17.40;47.10;;;;;;1608391;73;773;-72
2023/12/22 10:19:01;;;;;;;;;;;17.40;47.10;;;;;;1599017;73;745;-70
2023/12/22 10:21:03;;;;;;;;;;;17.40;47.10;;;;;;1593972;73;761;-66
2023/12/22 10:23:05;;;;;;;;;;;17.40;47.10;;;;;;1603740;73;742;-72
2023/12/22 10:25:08;;;;;;;;;;;17.40;47.10;;;;;;1593538;73;1163;-72
2023/12/22 10:27:10;;;;;;;;;;;17.30;47.10;;;;;;1569970;74;787;-72
2023/12/22 10:29:12;;;;;;;;;;;17.40;47.10;;;;;;1599277;73;799;-70
2023/12/22 10:31:14;;;;;;;;;;;17.40;47.10;;;;;;1611626;73;762;-73
2023/12/22 10:33:16;;;;;;;;;;;17.40;47.10;;;;;;1609281;73;1952;-72
2023/12/22 10:35:18;;;;;;;;;;;17.40;47.20;;;;;;1597413;73;1162;-72
2023/12/22 10:37:21;;;;;;;;;;;17.40;47.10;;;;;;1593797;73;1569;-71
2023/12/22 10:39:23;;;;;;;;;;;17.30;47.10;;;;;;1595673;73;785;-72
2023/12/22 10:41:24;;;;;;;;;;;17.40;47.10;;;;;;1604321;73;779;-71
2023/12/22 10:43:26;;;;;;;;;;;17.40;47.10;;;;;;1573541;74;747;-70
2023/12/22 10:45:30;;;;;;;;;;;17.40;47.10;;;;;;1612116;73;776;-72
2023/12/22 10:47:32;;;;;;;;;;;17.40;47.10;;;;;;1592041;73;751;-71
2023/12/22 10:49:34;;;;;;;;;;;17.30;47.20;;;;;;1600257;73;731;-69
2023/12/22 10:51:36;;;;;;;;;;;17.30;47.10;;;;;;1588427;73;756;-72
2023/12/22 10:53:40;;;;;;;;;;;17.30;47.20;;;;;;1596798;73;1932;-71
2023/12/22 10:55:41;;;;;;;;;;;17.40;47.10;;;;;;1613625;73;775;-69
2023/12/22 10:57:45;;;;;;;;;;;17.40;47.10;;;;;;1593288;73;797;-70
2023/12/22 10:59:47;;;;;;;;;;;17.30;47.20;;;;;;1597752;73;739;-70
2023/12/22 11:01:49;;;;;;;;;;;17.30;47.10;;;;;;1607707;73;750;-68
2023/12/22 11:03:51;;;;;;;;;;;17.30;47.10;;;;;;1605493;73;1218;-72
2023/12/22 11:05:53;;;;;;;;;;;17.40;47.10;;;;;;1593347;73;959;-71
2023/12/22 11:07:55;;;;;;;;;;;17.40;47.20;;;;;;1603565;73;441;-72
2023/12/22 11:09:57;;;;;;;;;;;17.30;47.20;;;;;;1608395;73;764;-73
2023/12/22 11:11:59;;;;;;;;;;;17.40;47.20;;;;;;1607307;73;802;-72
2023/12/22 11:14:01;;;;;;;;;;;17.40;47.20;;;;;;1595787;73;1928;-73
2023/12/22 11:16:03;;;;;;;;;;;17.40;47.10;;;;;;1611693;73;511;-71
2023/12/22 11:18:05;;;;;;;;;;;17.40;47.10;;;;;;1602761;73;752;-72
2023/12/22 11:20:07;;;;;;;;;;;17.40;47.20;;;;;;1531702;75;716;-71
2023/12/22 11:22:09;;;;;;;;;;;17.40;47.10;;;;;;1530167;75;764;-71
2023/12/22 11:24:11;;;;;;;;;;;17.40;47.20;;;;;;1562146;74;1196;-72
2023/12/22 11:26:13;;;;;;;;;;;17.40;47.10;;;;;;1562940;74;802;-70
2023/12/22 11:28:15;;;;;;;;;;;17.40;47.20;;;;;;1560920;75;819;-71
2023/12/22 11:30:17;;;;;;;;;;;17.30;47.20;;;;;;1562821;74;761;-72
2023/12/22 11:32:19;;;;;;;;;;;17.40;47.10;;;;;;1556010;74;1371;-71
2023/12/22 11:34:21;;;;;;;;;;;17.40;47.10;;;;;;1561186;74;1940;-71
2023/12/22 11:36:23;;;;;;;;;;;17.40;47.10;;;;;;1559587;74;801;-73
2023/12/22 11:38:25;;;;;;;;;;;17.30;47.10;;;;;;1552783;74;790;-71
2023/12/22 11:40:26;;;;;;;;;;;17.40;47.10;;;;;;1561734;74;783;-70
2023/12/22 11:42:32;;;;;;;;;;;17.40;47.10;;;;;;1557125;74;770;-70
2023/12/22 11:44:35;;;;;;;;;;;17.30;47.10;;;;;;1565979;74;1126;-72
2023/12/22 11:46:37;;;;;;;;;;;17.40;47.10;;;;;;1563093;75;758;-71
2023/12/22 11:48:39;;;;;;;;;;;17.40;47.10;;;;;;1563623;74;795;-72
2023/12/22 11:50:41;;;;;;;;;;;17.40;47.10;;;;;;1563786;75;784;-70
2023/12/22 11:52:43;;;;;;;;;;;17.40;47.10;;;;;;1562757;75;803;-72
2023/12/22 11:54:47;;;;;;;;;;;17.30;47.10;;;;;;1556381;76;1932;-68
2023/12/22 11:56:49;;;;;;;;;;;17.40;47.10;;;;;;1564489;76;722;-70
2023/12/22 11:58:58;;;;;;;;;;;17.30;47.10;;;;;;1563852;75;770;-71
2023/12/22 12:00:55;;;;;;;;;;;17.40;47.10;;;;;;1556723;75;1549;-72
2023/12/22 12:02:57;;;;;;;;;;;17.30;47.10;;;;;;1555664;75;749;-71
2023/12/22 12:05:00;;;;;;;;;;;17.40;47.10;;;;;;1561558;75;1231;-69
2023/12/22 12:07:03;;;;;;;;;;;17.30;47.10;;;;;;1570367;74;803;-69